sensor_id;sensor_type;location;lat;lon;timestamp;P1;durP1;ratioP1;P2;durP2;ratioP2
20890;SDS011;10605;52.968;8.844;2023-05-19T00:01:07;12.23;;;7.25;;
20890;SDS011;10605;52.968;8.844;2023-05-19T00:03:33;14.60;;;6.60;;
20890;SDS011;10605;52.968;8.844;2023-05-19T00:06:04;13.30;;;6.93;;
20890;SDS011;10605;52.968;8.844;2023-05-19T00:08:32;12.70;;;7.57;;
20890;SDS011;10605;52.968;8.844;2023-05-19T00:10:58;14.85;;;7.15;;
20890;SDS011;10605;52.968;8.844;2023-05-19T00:13:25;14.30;;;7.03;;
20890;SDS011;10605;52.968;8.844;2023-05-19T00:15:51;7.93;;;6.35;;
20890;SDS011;10605;52.968;8.844;2023-05-19T00:18:17;6.63;;;5.60;;
20890;SDS011;10605;52.968;8.844;2023-05-19T00:20:44;11.75;;;6.93;;
20890;SDS011;10605;52.968;8.844;2023-05-19T00:23:10;10.70;;;6.22;;
20890;SDS011;10605;52.968;8.844;2023-05-19T00:25:36;8.02;;;6.18;;
20890;SDS011;10605;52.968;8.844;2023-05-19T00:28:01;7.78;;;7.07;;
20890;SDS011;10605;52.968;8.844;2023-05-19T00:30:30;9.98;;;6.18;;
20890;SDS011;10605;52.968;8.844;2023-05-19T00:32:56;9.30;;;6.80;;
20890;SDS011;10605;52.968;8.844;2023-05-19T00:35:22;7.78;;;6.80;;
20890;SDS011;10605;52.968;8.844;2023-05-19T00:37:48;16.88;;;7.47;;
20890;SDS011;10605;52.968;8.844;2023-05-19T00:40:13;10.98;;;7.60;;
20890;SDS011;10605;52.968;8.844;2023-05-19T00:42:39;10.00;;;7.68;;
20890;SDS011;10605;52.968;8.844;2023-05-19T00:45:06;12.17;;;7.60;;
20890;SDS011;10605;52.968;8.844;2023-05-19T00:47:32;9.85;;;7.10;;
20890;SDS011;10605;52.968;8.844;2023-05-19T00:49:58;12.45;;;7.72;;
20890;SDS011;10605;52.968;8.844;2023-05-19T00:52:24;11.85;;;7.13;;
20890;SDS011;10605;52.968;8.844;2023-05-19T00:54:50;12.30;;;7.10;;
20890;SDS011;10605;52.968;8.844;2023-05-19T00:57:17;8.00;;;7.18;;
20890;SDS011;10605;52.968;8.844;2023-05-19T00:59:45;9.43;;;6.70;;
20890;SDS011;10605;52.968;8.844;2023-05-19T01:02:11;10.60;;;8.60;;
20890;SDS011;10605;52.968;8.844;2023-05-19T01:04:39;14.77;;;8.67;;
20890;SDS011;10605;52.968;8.844;2023-05-19T01:07:05;16.93;;;9.40;;
20890;SDS011;10605;52.968;8.844;2023-05-19T01:09:32;14.70;;;9.05;;
20890;SDS011;10605;52.968;8.844;2023-05-19T01:11:58;11.73;;;8.83;;
20890;SDS011;10605;52.968;8.844;2023-05-19T01:14:24;15.52;;;9.10;;
20890;SDS011;10605;52.968;8.844;2023-05-19T01:17:01;15.32;;;8.50;;
20890;SDS011;10605;52.968;8.844;2023-05-19T01:22:39;12.27;;;8.30;;
20890;SDS011;10605;52.968;8.844;2023-05-19T01:25:29;9.17;;;8.27;;
20890;SDS011;10605;52.968;8.844;2023-05-19T01:31:02;10.07;;;8.57;;
20890;SDS011;10605;52.968;8.844;2023-05-19T01:33:30;10.60;;;7.47;;
20890;SDS011;10605;52.968;8.844;2023-05-19T01:35:57;12.97;;;7.77;;
20890;SDS011;10605;52.968;8.844;2023-05-19T01:38:26;11.10;;;7.80;;
20890;SDS011;10605;52.968;8.844;2023-05-19T01:40:53;8.57;;;7.70;;
20890;SDS011;10605;52.968;8.844;2023-05-19T01:43:24;12.23;;;7.70;;
20890;SDS011;10605;52.968;8.844;2023-05-19T01:45:51;14.60;;;8.03;;
20890;SDS011;10605;52.968;8.844;2023-05-19T01:48:17;8.17;;;7.33;;
20890;SDS011;10605;52.968;8.844;2023-05-19T01:50:43;9.80;;;7.57;;
20890;SDS011;10605;52.968;8.844;2023-05-19T01:53:10;8.73;;;6.87;;
20890;SDS011;10605;52.968;8.844;2023-05-19T01:55:42;9.10;;;7.27;;
20890;SDS011;10605;52.968;8.844;2023-05-19T02:07:12;10.37;;;7.87;;
20890;SDS011;10605;52.968;8.844;2023-05-19T02:09:52;10.17;;;7.93;;
20890;SDS011;10605;52.968;8.844;2023-05-19T02:12:29;8.07;;;7.27;;
20890;SDS011;10605;52.968;8.844;2023-05-19T02:17:27;14.07;;;8.17;;
20890;SDS011;10605;52.968;8.844;2023-05-19T02:19:56;12.70;;;9.07;;
20890;SDS011;10605;52.968;8.844;2023-05-19T02:22:23;16.03;;;9.10;;
20890;SDS011;10605;52.968;8.844;2023-05-19T02:24:49;10.47;;;8.83;;
20890;SDS011;10605;52.968;8.844;2023-05-19T02:27:15;11.07;;;9.10;;
20890;SDS011;10605;52.968;8.844;2023-05-19T02:29:41;11.93;;;9.50;;
20890;SDS011;10605;52.968;8.844;2023-05-19T02:32:07;9.67;;;8.53;;
20890;SDS011;10605;52.968;8.844;2023-05-19T02:34:33;13.50;;;8.93;;
20890;SDS011;10605;52.968;8.844;2023-05-19T02:36:58;9.07;;;8.07;;
20890;SDS011;10605;52.968;8.844;2023-05-19T02:39:25;12.40;;;8.73;;
20890;SDS011;10605;52.968;8.844;2023-05-19T02:41:50;9.07;;;8.10;;
20890;SDS011;10605;52.968;8.844;2023-05-19T02:44:16;7.63;;;7.03;;
20890;SDS011;10605;52.968;8.844;2023-05-19T02:46:42;11.40;;;7.47;;
20890;SDS011;10605;52.968;8.844;2023-05-19T02:49:07;9.97;;;7.27;;
20890;SDS011;10605;52.968;8.844;2023-05-19T02:51:33;11.50;;;7.43;;
20890;SDS011;10605;52.968;8.844;2023-05-19T02:53:59;12.37;;;8.23;;
20890;SDS011;10605;52.968;8.844;2023-05-19T02:56:24;12.67;;;8.70;;
20890;SDS011;10605;52.968;8.844;2023-05-19T02:58:52;9.37;;;8.47;;
20890;SDS011;10605;52.968;8.844;2023-05-19T03:01:17;13.77;;;9.77;;
20890;SDS011;10605;52.968;8.844;2023-05-19T03:03:45;18.03;;;10.07;;
20890;SDS011;10605;52.968;8.844;2023-05-19T03:06:11;17.33;;;11.37;;
20890;SDS011;10605;52.968;8.844;2023-05-19T03:08:38;15.63;;;10.77;;
20890;SDS011;10605;52.968;8.844;2023-05-19T03:11:04;21.87;;;11.27;;
20890;SDS011;10605;52.968;8.844;2023-05-19T03:13:29;17.20;;;10.57;;
20890;SDS011;10605;52.968;8.844;2023-05-19T03:15:56;14.67;;;11.50;;
20890;SDS011;10605;52.968;8.844;2023-05-19T03:18:23;18.37;;;11.60;;
20890;SDS011;10605;52.968;8.844;2023-05-19T03:20:50;13.00;;;10.80;;
20890;SDS011;10605;52.968;8.844;2023-05-19T03:23:18;16.70;;;10.67;;
20890;SDS011;10605;52.968;8.844;2023-05-19T03:25:45;15.10;;;10.27;;
20890;SDS011;10605;52.968;8.844;2023-05-19T03:28:10;11.87;;;8.87;;
20890;SDS011;10605;52.968;8.844;2023-05-19T03:30:36;10.53;;;8.53;;
20890;SDS011;10605;52.968;8.844;2023-05-19T03:33:02;8.57;;;7.67;;
20890;SDS011;10605;52.968;8.844;2023-05-19T03:35:29;11.53;;;8.40;;
20890;SDS011;10605;52.968;8.844;2023-05-19T03:37:55;11.23;;;7.73;;
20890;SDS011;10605;52.968;8.844;2023-05-19T03:40:20;8.40;;;7.50;;
20890;SDS011;10605;52.968;8.844;2023-05-19T03:42:46;11.27;;;7.50;;
20890;SDS011;10605;52.968;8.844;2023-05-19T03:45:12;8.50;;;7.70;;
20890;SDS011;10605;52.968;8.844;2023-05-19T03:47:37;8.03;;;7.20;;
20890;SDS011;10605;52.968;8.844;2023-05-19T03:50:03;8.03;;;6.90;;
20890;SDS011;10605;52.968;8.844;2023-05-19T03:52:29;9.47;;;7.00;;
20890;SDS011;10605;52.968;8.844;2023-05-19T03:54:55;8.00;;;7.17;;
20890;SDS011;10605;52.968;8.844;2023-05-19T03:57:21;10.00;;;8.30;;
20890;SDS011;10605;52.968;8.844;2023-05-19T03:59:47;10.70;;;7.33;;
20890;SDS011;10605;52.968;8.844;2023-05-19T04:02:13;8.70;;;7.20;;
20890;SDS011;10605;52.968;8.844;2023-05-19T04:04:39;7.90;;;7.20;;
20890;SDS011;10605;52.968;8.844;2023-05-19T04:07:05;8.70;;;6.97;;
20890;SDS011;10605;52.968;8.844;2023-05-19T04:09:31;16.80;;;8.17;;
20890;SDS011;10605;52.968;8.844;2023-05-19T04:11:59;9.40;;;8.47;;
20890;SDS011;10605;52.968;8.844;2023-05-19T04:14:26;9.73;;;7.68;;
20890;SDS011;10605;52.968;8.844;2023-05-19T04:16:52;15.13;;;9.37;;
20890;SDS011;10605;52.968;8.844;2023-05-19T04:19:19;10.57;;;8.70;;
20890;SDS011;10605;52.968;8.844;2023-05-19T04:21:44;18.07;;;9.73;;
20890;SDS011;10605;52.968;8.844;2023-05-19T04:24:10;13.27;;;10.37;;
20890;SDS011;10605;52.968;8.844;2023-05-19T04:26:36;13.30;;;9.93;;
20890;SDS011;10605;52.968;8.844;2023-05-19T04:29:05;11.67;;;10.23;;
20890;SDS011;10605;52.968;8.844;2023-05-19T04:31:31;12.53;;;10.53;;
20890;SDS011;10605;52.968;8.844;2023-05-19T04:33:58;13.30;;;9.10;;
20890;SDS011;10605;52.968;8.844;2023-05-19T04:36:25;10.33;;;7.43;;
20890;SDS011;10605;52.968;8.844;2023-05-19T04:38:51;8.23;;;7.40;;
20890;SDS011;10605;52.968;8.844;2023-05-19T04:41:19;6.93;;;6.30;;
20890;SDS011;10605;52.968;8.844;2023-05-19T04:43:45;6.70;;;6.20;;
20890;SDS011;10605;52.968;8.844;2023-05-19T04:46:12;8.90;;;5.87;;
20890;SDS011;10605;52.968;8.844;2023-05-19T04:48:38;6.70;;;5.30;;
20890;SDS011;10605;52.968;8.844;2023-05-19T04:51:06;6.57;;;5.73;;
20890;SDS011;10605;52.968;8.844;2023-05-19T04:53:32;6.17;;;5.57;;
20890;SDS011;10605;52.968;8.844;2023-05-19T04:55:58;7.27;;;6.07;;
20890;SDS011;10605;52.968;8.844;2023-05-19T04:58:25;7.47;;;6.60;;
20890;SDS011;10605;52.968;8.844;2023-05-19T05:00:51;9.15;;;6.93;;
20890;SDS011;10605;52.968;8.844;2023-05-19T05:03:20;9.37;;;6.70;;
20890;SDS011;10605;52.968;8.844;2023-05-19T05:05:48;11.87;;;7.27;;
20890;SDS011;10605;52.968;8.844;2023-05-19T05:08:14;11.95;;;8.57;;
20890;SDS011;10605;52.968;8.844;2023-05-19T05:10:46;11.63;;;8.23;;
20890;SDS011;10605;52.968;8.844;2023-05-19T05:13:17;13.63;;;8.98;;
20890;SDS011;10605;52.968;8.844;2023-05-19T05:15:46;11.63;;;9.38;;
20890;SDS011;10605;52.968;8.844;2023-05-19T05:18:12;11.65;;;9.50;;
20890;SDS011;10605;52.968;8.844;2023-05-19T05:20:39;9.73;;;7.90;;
20890;SDS011;10605;52.968;8.844;2023-05-19T05:23:07;14.10;;;8.57;;
20890;SDS011;10605;52.968;8.844;2023-05-19T05:25:33;7.03;;;6.22;;
20890;SDS011;10605;52.968;8.844;2023-05-19T05:28:00;11.18;;;6.80;;
20890;SDS011;10605;52.968;8.844;2023-05-19T05:30:29;10.05;;;6.05;;
20890;SDS011;10605;52.968;8.844;2023-05-19T05:32:55;7.38;;;5.45;;
20890;SDS011;10605;52.968;8.844;2023-05-19T05:35:22;9.70;;;5.47;;
20890;SDS011;10605;52.968;8.844;2023-05-19T05:37:48;17.33;;;5.85;;
20890;SDS011;10605;52.968;8.844;2023-05-19T05:40:14;7.43;;;4.82;;
20890;SDS011;10605;52.968;8.844;2023-05-19T05:42:40;13.55;;;4.35;;
20890;SDS011;10605;52.968;8.844;2023-05-19T05:45:07;6.57;;;4.35;;
20890;SDS011;10605;52.968;8.844;2023-05-19T05:47:33;8.70;;;4.20;;
20890;SDS011;10605;52.968;8.844;2023-05-19T05:50:02;13.45;;;4.43;;
20890;SDS011;10605;52.968;8.844;2023-05-19T05:52:29;9.23;;;4.30;;
20890;SDS011;10605;52.968;8.844;2023-05-19T05:54:56;8.10;;;3.95;;
20890;SDS011;10605;52.968;8.844;2023-05-19T05:57:22;9.52;;;3.92;;
20890;SDS011;10605;52.968;8.844;2023-05-19T05:59:48;7.20;;;3.95;;
20890;SDS011;10605;52.968;8.844;2023-05-19T06:02:15;7.35;;;4.00;;
20890;SDS011;10605;52.968;8.844;2023-05-19T06:04:41;8.52;;;3.47;;
20890;SDS011;10605;52.968;8.844;2023-05-19T06:07:08;9.25;;;3.45;;
20890;SDS011;10605;52.968;8.844;2023-05-19T06:09:34;10.95;;;3.80;;
20890;SDS011;10605;52.968;8.844;2023-05-19T06:12:00;6.80;;;3.60;;
20890;SDS011;10605;52.968;8.844;2023-05-19T06:14:25;10.88;;;3.75;;
20890;SDS011;10605;52.968;8.844;2023-05-19T06:16:51;10.95;;;3.95;;
20890;SDS011;10605;52.968;8.844;2023-05-19T06:19:17;10.60;;;3.58;;
20890;SDS011;10605;52.968;8.844;2023-05-19T06:21:44;15.00;;;3.70;;
20890;SDS011;10605;52.968;8.844;2023-05-19T06:24:10;5.57;;;3.47;;
20890;SDS011;10605;52.968;8.844;2023-05-19T06:26:36;8.73;;;3.50;;
20890;SDS011;10605;52.968;8.844;2023-05-19T06:29:01;9.15;;;3.92;;
20890;SDS011;10605;52.968;8.844;2023-05-19T06:31:27;6.47;;;3.97;;
20890;SDS011;10605;52.968;8.844;2023-05-19T06:33:53;8.23;;;3.88;;
20890;SDS011;10605;52.968;8.844;2023-05-19T06:36:19;7.75;;;3.83;;
20890;SDS011;10605;52.968;8.844;2023-05-19T06:38:45;7.40;;;3.70;;
20890;SDS011;10605;52.968;8.844;2023-05-19T06:41:11;9.52;;;3.58;;
20890;SDS011;10605;52.968;8.844;2023-05-19T06:43:37;9.70;;;3.65;;
20890;SDS011;10605;52.968;8.844;2023-05-19T06:46:03;10.07;;;3.60;;
20890;SDS011;10605;52.968;8.844;2023-05-19T06:48:29;7.20;;;3.80;;
20890;SDS011;10605;52.968;8.844;2023-05-19T06:50:54;10.07;;;3.83;;
20890;SDS011;10605;52.968;8.844;2023-05-19T06:53:20;10.32;;;3.22;;
20890;SDS011;10605;52.968;8.844;2023-05-19T06:55:46;5.65;;;3.55;;
20890;SDS011;10605;52.968;8.844;2023-05-19T06:58:15;7.60;;;4.00;;
20890;SDS011;10605;52.968;8.844;2023-05-19T07:00:40;6.10;;;3.17;;
20890;SDS011;10605;52.968;8.844;2023-05-19T07:03:07;9.23;;;4.13;;
20890;SDS011;10605;52.968;8.844;2023-05-19T07:05:33;6.63;;;3.65;;
20890;SDS011;10605;52.968;8.844;2023-05-19T07:07:59;7.47;;;3.70;;
20890;SDS011;10605;52.968;8.844;2023-05-19T07:10:25;7.93;;;3.53;;
20890;SDS011;10605;52.968;8.844;2023-05-19T07:12:51;7.53;;;3.80;;
20890;SDS011;10605;52.968;8.844;2023-05-19T07:15:17;6.70;;;3.13;;
20890;SDS011;10605;52.968;8.844;2023-05-19T07:17:57;8.73;;;3.83;;
20890;SDS011;10605;52.968;8.844;2023-05-19T07:20:35;7.35;;;3.42;;
20890;SDS011;10605;52.968;8.844;2023-05-19T07:23:28;6.43;;;3.15;;
20890;SDS011;10605;52.968;8.844;2023-05-19T07:26:00;5.85;;;3.25;;
20890;SDS011;10605;52.968;8.844;2023-05-19T07:29:36;7.68;;;3.15;;
20890;SDS011;10605;52.968;8.844;2023-05-19T07:32:15;5.85;;;2.67;;
20890;SDS011;10605;52.968;8.844;2023-05-19T07:36:00;7.38;;;2.33;;
20890;SDS011;10605;52.968;8.844;2023-05-19T07:38:29;6.63;;;3.08;;
20890;SDS011;10605;52.968;8.844;2023-05-19T07:40:58;8.60;;;3.63;;
20890;SDS011;10605;52.968;8.844;2023-05-19T07:43:44;8.60;;;3.10;;
20890;SDS011;10605;52.968;8.844;2023-05-19T07:47:02;3.50;;;2.53;;
20890;SDS011;10605;52.968;8.844;2023-05-19T07:49:38;4.18;;;2.60;;
20890;SDS011;10605;52.968;8.844;2023-05-19T07:52:04;9.38;;;2.88;;
20890;SDS011;10605;52.968;8.844;2023-05-19T07:54:30;5.25;;;2.83;;
20890;SDS011;10605;52.968;8.844;2023-05-19T07:56:56;5.63;;;2.38;;
20890;SDS011;10605;52.968;8.844;2023-05-19T07:59:22;5.70;;;2.88;;
20890;SDS011;10605;52.968;8.844;2023-05-19T08:01:48;7.28;;;2.83;;
20890;SDS011;10605;52.968;8.844;2023-05-19T08:04:13;6.65;;;2.78;;
20890;SDS011;10605;52.968;8.844;2023-05-19T08:06:39;8.15;;;2.70;;
20890;SDS011;10605;52.968;8.844;2023-05-19T08:09:06;5.03;;;2.30;;
20890;SDS011;10605;52.968;8.844;2023-05-19T08:11:32;9.82;;;2.30;;
20890;SDS011;10605;52.968;8.844;2023-05-19T08:13:58;10.10;;;2.92;;
20890;SDS011;10605;52.968;8.844;2023-05-19T08:16:23;5.60;;;2.53;;
20890;SDS011;10605;52.968;8.844;2023-05-19T08:18:49;5.40;;;2.15;;
20890;SDS011;10605;52.968;8.844;2023-05-19T08:21:15;7.20;;;2.47;;
20890;SDS011;10605;52.968;8.844;2023-05-19T08:23:41;5.47;;;2.03;;
20890;SDS011;10605;52.968;8.844;2023-05-19T08:26:07;6.57;;;2.30;;
20890;SDS011;10605;52.968;8.844;2023-05-19T08:28:33;7.60;;;3.03;;
20890;SDS011;10605;52.968;8.844;2023-05-19T08:30:58;3.42;;;2.08;;
20890;SDS011;10605;52.968;8.844;2023-05-19T08:33:24;9.57;;;3.13;;
20890;SDS011;10605;52.968;8.844;2023-05-19T08:35:50;4.57;;;2.35;;
20890;SDS011;10605;52.968;8.844;2023-05-19T08:38:15;4.57;;;2.63;;
20890;SDS011;10605;52.968;8.844;2023-05-19T08:40:41;4.57;;;2.75;;
20890;SDS011;10605;52.968;8.844;2023-05-19T08:43:11;10.50;;;2.50;;
20890;SDS011;10605;52.968;8.844;2023-05-19T08:45:38;13.27;;;2.53;;
20890;SDS011;10605;52.968;8.844;2023-05-19T08:48:07;5.05;;;2.85;;
20890;SDS011;10605;52.968;8.844;2023-05-19T08:50:34;5.88;;;2.33;;
20890;SDS011;10605;52.968;8.844;2023-05-19T08:55:46;8.32;;;2.55;;
20890;SDS011;10605;52.968;8.844;2023-05-19T08:58:18;5.95;;;2.42;;
20890;SDS011;10605;52.968;8.844;2023-05-19T09:00:46;6.63;;;2.40;;
20890;SDS011;10605;52.968;8.844;2023-05-19T09:03:14;4.13;;;2.53;;
20890;SDS011;10605;52.968;8.844;2023-05-19T09:05:41;9.00;;;2.38;;
20890;SDS011;10605;52.968;8.844;2023-05-19T09:08:07;4.57;;;2.15;;
20890;SDS011;10605;52.968;8.844;2023-05-19T09:10:33;7.35;;;2.65;;
20890;SDS011;10605;52.968;8.844;2023-05-19T09:13:02;4.80;;;1.98;;
20890;SDS011;10605;52.968;8.844;2023-05-19T09:15:29;6.47;;;2.85;;
20890;SDS011;10605;52.968;8.844;2023-05-19T09:18:06;5.28;;;2.25;;
20890;SDS011;10605;52.968;8.844;2023-05-19T09:20:36;9.52;;;2.42;;
20890;SDS011;10605;52.968;8.844;2023-05-19T09:23:05;6.15;;;1.90;;
20890;SDS011;10605;52.968;8.844;2023-05-19T09:25:31;6.20;;;1.92;;
20890;SDS011;10605;52.968;8.844;2023-05-19T09:27:57;5.32;;;1.83;;
20890;SDS011;10605;52.968;8.844;2023-05-19T09:30:24;6.43;;;2.30;;
20890;SDS011;10605;52.968;8.844;2023-05-19T09:32:50;5.32;;;2.30;;
20890;SDS011;10605;52.968;8.844;2023-05-19T09:35:16;4.82;;;2.00;;
20890;SDS011;10605;52.968;8.844;2023-05-19T09:37:44;5.05;;;1.90;;
20890;SDS011;10605;52.968;8.844;2023-05-19T09:40:12;5.22;;;1.88;;
20890;SDS011;10605;52.968;8.844;2023-05-19T09:42:39;5.70;;;1.90;;
20890;SDS011;10605;52.968;8.844;2023-05-19T09:45:07;5.63;;;1.42;;
20890;SDS011;10605;52.968;8.844;2023-05-19T09:47:36;9.48;;;1.70;;
20890;SDS011;10605;52.968;8.844;2023-05-19T09:50:04;3.80;;;1.40;;
20890;SDS011;10605;52.968;8.844;2023-05-19T09:52:37;5.72;;;1.50;;
20890;SDS011;10605;52.968;8.844;2023-05-19T09:55:11;5.70;;;1.70;;
20890;SDS011;10605;52.968;8.844;2023-05-19T09:57:37;8.35;;;1.35;;
20890;SDS011;10605;52.968;8.844;2023-05-19T10:00:05;2.78;;;1.25;;
20890;SDS011;10605;52.968;8.844;2023-05-19T10:02:41;3.97;;;1.95;;
20890;SDS011;10605;52.968;8.844;2023-05-19T10:05:10;8.25;;;1.83;;
20890;SDS011;10605;52.968;8.844;2023-05-19T10:07:40;4.00;;;1.33;;
20890;SDS011;10605;52.968;8.844;2023-05-19T10:10:17;2.88;;;1.17;;
20890;SDS011;10605;52.968;8.844;2023-05-19T10:12:46;3.60;;;1.15;;
20890;SDS011;10605;52.968;8.844;2023-05-19T10:15:15;2.25;;;1.52;;
20890;SDS011;10605;52.968;8.844;2023-05-19T10:17:43;2.97;;;1.70;;
20890;SDS011;10605;52.968;8.844;2023-05-19T10:20:10;6.63;;;1.55;;
20890;SDS011;10605;52.968;8.844;2023-05-19T10:22:40;4.47;;;1.85;;
20890;SDS011;10605;52.968;8.844;2023-05-19T10:25:07;3.53;;;1.38;;
20890;SDS011;10605;52.968;8.844;2023-05-19T10:28:08;2.78;;;1.25;;
20890;SDS011;10605;52.968;8.844;2023-05-19T10:30:30;4.22;;;1.30;;
20890;SDS011;10605;52.968;8.844;2023-05-19T10:32:59;2.63;;;1.40;;
20890;SDS011;10605;52.968;8.844;2023-05-19T10:38:26;6.75;;;1.70;;
20890;SDS011;10605;52.968;8.844;2023-05-19T10:44:26;6.85;;;1.40;;
20890;SDS011;10605;52.968;8.844;2023-05-19T10:47:12;2.83;;;1.30;;
20890;SDS011;10605;52.968;8.844;2023-05-19T10:49:38;4.95;;;1.52;;
20890;SDS011;10605;52.968;8.844;2023-05-19T10:52:17;4.18;;;1.30;;
20890;SDS011;10605;52.968;8.844;2023-05-19T10:54:49;3.65;;;1.30;;
20890;SDS011;10605;52.968;8.844;2023-05-19T10:57:18;1.95;;;1.52;;
20890;SDS011;10605;52.968;8.844;2023-05-19T10:59:50;3.53;;;1.10;;
20890;SDS011;10605;52.968;8.844;2023-05-19T11:05:10;2.20;;;1.02;;
20890;SDS011;10605;52.968;8.844;2023-05-19T11:07:41;3.70;;;1.20;;
20890;SDS011;10605;52.968;8.844;2023-05-19T11:10:32;5.50;;;1.23;;
20890;SDS011;10605;52.968;8.844;2023-05-19T11:12:58;2.55;;;1.63;;
20890;SDS011;10605;52.968;8.844;2023-05-19T11:15:25;2.15;;;1.27;;
20890;SDS011;10605;52.968;8.844;2023-05-19T11:17:52;3.70;;;1.55;;
20890;SDS011;10605;52.968;8.844;2023-05-19T11:20:25;2.72;;;1.33;;
20890;SDS011;10605;52.968;8.844;2023-05-19T11:25:53;2.40;;;1.15;;
20890;SDS011;10605;52.968;8.844;2023-05-19T11:28:19;1.83;;;1.00;;
20890;SDS011;10605;52.968;8.844;2023-05-19T11:30:50;3.65;;;1.20;;
20890;SDS011;10605;52.968;8.844;2023-05-19T11:33:19;3.75;;;1.08;;
20890;SDS011;10605;52.968;8.844;2023-05-19T11:35:49;3.72;;;1.20;;
20890;SDS011;10605;52.968;8.844;2023-05-19T11:38:15;5.43;;;1.40;;
20890;SDS011;10605;52.968;8.844;2023-05-19T11:40:42;3.10;;;0.75;;
20890;SDS011;10605;52.968;8.844;2023-05-19T11:43:08;8.43;;;1.17;;
20890;SDS011;10605;52.968;8.844;2023-05-19T11:45:34;4.65;;;1.48;;
20890;SDS011;10605;52.968;8.844;2023-05-19T11:48:11;2.90;;;1.10;;
20890;SDS011;10605;52.968;8.844;2023-05-19T11:50:39;4.55;;;1.25;;
20890;SDS011;10605;52.968;8.844;2023-05-19T11:53:05;1.83;;;1.15;;
20890;SDS011;10605;52.968;8.844;2023-05-19T11:55:32;3.55;;;1.40;;
20890;SDS011;10605;52.968;8.844;2023-05-19T11:57:59;2.55;;;1.08;;
20890;SDS011;10605;52.968;8.844;2023-05-19T12:00:26;4.07;;;1.13;;
20890;SDS011;10605;52.968;8.844;2023-05-19T12:02:54;6.18;;;1.17;;
20890;SDS011;10605;52.968;8.844;2023-05-19T12:05:21;2.70;;;1.30;;
20890;SDS011;10605;52.968;8.844;2023-05-19T12:07:47;5.40;;;1.40;;
20890;SDS011;10605;52.968;8.844;2023-05-19T12:10:15;2.22;;;1.10;;
20890;SDS011;10605;52.968;8.844;2023-05-19T12:12:52;8.27;;;1.30;;
20890;SDS011;10605;52.968;8.844;2023-05-19T12:15:19;5.35;;;1.55;;
20890;SDS011;10605;52.968;8.844;2023-05-19T12:17:55;4.88;;;1.40;;
20890;SDS011;10605;52.968;8.844;2023-05-19T12:20:23;3.42;;;1.45;;
20890;SDS011;10605;52.968;8.844;2023-05-19T12:22:49;4.00;;;1.70;;
20890;SDS011;10605;52.968;8.844;2023-05-19T12:25:16;2.17;;;1.20;;
20890;SDS011;10605;52.968;8.844;2023-05-19T12:27:42;6.28;;;2.03;;
20890;SDS011;10605;52.968;8.844;2023-05-19T12:30:10;2.58;;;1.20;;
20890;SDS011;10605;52.968;8.844;2023-05-19T12:32:39;3.30;;;1.45;;
20890;SDS011;10605;52.968;8.844;2023-05-19T12:35:05;2.33;;;1.20;;
20890;SDS011;10605;52.968;8.844;2023-05-19T12:37:32;4.15;;;1.20;;
20890;SDS011;10605;52.968;8.844;2023-05-19T12:39:58;2.95;;;1.25;;
20890;SDS011;10605;52.968;8.844;2023-05-19T12:42:28;5.75;;;1.25;;
20890;SDS011;10605;52.968;8.844;2023-05-19T12:44:59;5.70;;;1.35;;
20890;SDS011;10605;52.968;8.844;2023-05-19T12:47:30;3.75;;;0.80;;
20890;SDS011;10605;52.968;8.844;2023-05-19T12:52:42;4.93;;;1.20;;
20890;SDS011;10605;52.968;8.844;2023-05-19T12:55:09;2.85;;;1.10;;
20890;SDS011;10605;52.968;8.844;2023-05-19T12:57:40;1.80;;;1.00;;
20890;SDS011;10605;52.968;8.844;2023-05-19T13:00:18;2.47;;;1.13;;
20890;SDS011;10605;52.968;8.844;2023-05-19T13:02:55;5.22;;;1.10;;
20890;SDS011;10605;52.968;8.844;2023-05-19T13:05:27;2.65;;;1.20;;
20890;SDS011;10605;52.968;8.844;2023-05-19T13:07:54;2.47;;;1.15;;
20890;SDS011;10605;52.968;8.844;2023-05-19T13:10:20;2.10;;;1.13;;
20890;SDS011;10605;52.968;8.844;2023-05-19T13:12:46;2.88;;;1.02;;
20890;SDS011;10605;52.968;8.844;2023-05-19T13:15:12;2.28;;;1.15;;
20890;SDS011;10605;52.968;8.844;2023-05-19T13:17:38;2.70;;;1.50;;
20890;SDS011;10605;52.968;8.844;2023-05-19T13:20:04;1.52;;;0.90;;
20890;SDS011;10605;52.968;8.844;2023-05-19T13:22:30;4.13;;;1.15;;
20890;SDS011;10605;52.968;8.844;2023-05-19T13:24:55;6.40;;;1.33;;
20890;SDS011;10605;52.968;8.844;2023-05-19T13:27:23;4.22;;;1.23;;
20890;SDS011;10605;52.968;8.844;2023-05-19T13:29:50;4.63;;;1.23;;
20890;SDS011;10605;52.968;8.844;2023-05-19T13:32:15;2.97;;;1.27;;
20890;SDS011;10605;52.968;8.844;2023-05-19T13:34:41;5.45;;;1.45;;
20890;SDS011;10605;52.968;8.844;2023-05-19T13:37:07;2.65;;;1.33;;
20890;SDS011;10605;52.968;8.844;2023-05-19T13:39:33;1.95;;;1.23;;
20890;SDS011;10605;52.968;8.844;2023-05-19T13:42:00;2.05;;;0.95;;
20890;SDS011;10605;52.968;8.844;2023-05-19T13:44:25;2.55;;;1.05;;
20890;SDS011;10605;52.968;8.844;2023-05-19T13:46:51;2.72;;;1.33;;
20890;SDS011;10605;52.968;8.844;2023-05-19T13:49:17;5.05;;;1.55;;
20890;SDS011;10605;52.968;8.844;2023-05-19T13:51:42;6.45;;;1.42;;
20890;SDS011;10605;52.968;8.844;2023-05-19T13:54:08;2.45;;;1.42;;
20890;SDS011;10605;52.968;8.844;2023-05-19T13:56:34;3.75;;;1.50;;
20890;SDS011;10605;52.968;8.844;2023-05-19T13:59:00;2.63;;;1.48;;
20890;SDS011;10605;52.968;8.844;2023-05-19T14:01:27;1.85;;;1.13;;
20890;SDS011;10605;52.968;8.844;2023-05-19T14:03:53;1.85;;;1.20;;
20890;SDS011;10605;52.968;8.844;2023-05-19T14:06:19;6.75;;;1.30;;
20890;SDS011;10605;52.968;8.844;2023-05-19T14:08:45;6.43;;;1.48;;
20890;SDS011;10605;52.968;8.844;2023-05-19T14:11:19;4.45;;;1.25;;
20890;SDS011;10605;52.968;8.844;2023-05-19T14:13:48;2.63;;;1.50;;
20890;SDS011;10605;52.968;8.844;2023-05-19T14:16:14;3.67;;;1.30;;
20890;SDS011;10605;52.968;8.844;2023-05-19T14:18:40;3.00;;;1.33;;
20890;SDS011;10605;52.968;8.844;2023-05-19T14:21:06;5.20;;;1.33;;
20890;SDS011;10605;52.968;8.844;2023-05-19T14:23:32;1.80;;;0.95;;
20890;SDS011;10605;52.968;8.844;2023-05-19T14:25:58;3.20;;;1.00;;
20890;SDS011;10605;52.968;8.844;2023-05-19T14:28:24;1.85;;;1.33;;
20890;SDS011;10605;52.968;8.844;2023-05-19T14:30:50;3.40;;;1.33;;
20890;SDS011;10605;52.968;8.844;2023-05-19T14:33:16;3.55;;;1.15;;
20890;SDS011;10605;52.968;8.844;2023-05-19T14:35:43;10.23;;;1.30;;
20890;SDS011;10605;52.968;8.844;2023-05-19T14:38:09;3.88;;;1.65;;
20890;SDS011;10605;52.968;8.844;2023-05-19T14:40:35;4.20;;;1.25;;
20890;SDS011;10605;52.968;8.844;2023-05-19T14:43:02;3.28;;;1.23;;
20890;SDS011;10605;52.968;8.844;2023-05-19T14:45:28;3.33;;;0.90;;
20890;SDS011;10605;52.968;8.844;2023-05-19T14:47:53;4.13;;;1.20;;
20890;SDS011;10605;52.968;8.844;2023-05-19T14:50:19;2.20;;;1.35;;
20890;SDS011;10605;52.968;8.844;2023-05-19T14:52:45;1.75;;;1.20;;
20890;SDS011;10605;52.968;8.844;2023-05-19T14:55:11;2.00;;;1.27;;
20890;SDS011;10605;52.968;8.844;2023-05-19T14:57:37;5.25;;;1.30;;
20890;SDS011;10605;52.968;8.844;2023-05-19T15:00:02;3.42;;;1.35;;
20890;SDS011;10605;52.968;8.844;2023-05-19T15:02:29;3.58;;;1.40;;
20890;SDS011;10605;52.968;8.844;2023-05-19T15:04:54;2.45;;;1.30;;
20890;SDS011;10605;52.968;8.844;2023-05-19T15:07:20;3.90;;;1.27;;
20890;SDS011;10605;52.968;8.844;2023-05-19T15:09:46;4.03;;;1.08;;
20890;SDS011;10605;52.968;8.844;2023-05-19T15:12:11;2.60;;;1.33;;
20890;SDS011;10605;52.968;8.844;2023-05-19T15:14:37;1.60;;;1.27;;
20890;SDS011;10605;52.968;8.844;2023-05-19T15:17:03;1.73;;;1.20;;
20890;SDS011;10605;52.968;8.844;2023-05-19T15:19:29;1.48;;;1.38;;
20890;SDS011;10605;52.968;8.844;2023-05-19T15:21:55;4.63;;;1.35;;
20890;SDS011;10605;52.968;8.844;2023-05-19T15:24:20;3.25;;;1.98;;